Time;durP1;ratioP1;P1;durP2;ratioP2;P2;SDS_P1;SDS_P2;PMS_P1;PMS_P2;Temp;Humidity;BMP_temperature;BMP_pressure;BME280_temperature;BME280_humidity;BME280_pressure;Samples;Min_cycle;Max_cycle;Signal;HPM_P1;HPM_P2
2022/01/13 00:01:10;;;;;;;11.63;5.82;;;;;;;-0.78;100.00;100800.31;4074435;28;20064;-73
2022/01/13 00:03:10;;;;;;;15.25;6.05;;;;;;;-0.80;100.00;100796.22;4075285;28;20048;-72
2022/01/13 00:05:11;;;;;;;11.45;5.75;;;;;;;-0.77;100.00;100801.16;4074753;28;20518;-73
2022/01/13 00:07:11;;;;;;;8.75;5.10;;;;;;;-0.80;100.00;100799.75;4073079;28;20343;-73
2022/01/13 00:09:13;;;;;;;14.40;5.72;;;;;;;-0.81;100.00;100802.72;4075281;28;20052;-73
2022/01/13 00:11:14;;;;;;;9.23;5.82;;;;;;;-0.85;100.00;100802.38;4075528;28;20399;-73
2022/01/13 00:13:22;;;;;;;9.07;4.97;;;;;;;-0.88;100.00;100797.44;4073296;28;20071;-72
2022/01/13 00:15:39;;;;;;;8.35;4.65;;;;;;;-0.93;100.00;100800.06;4074079;28;20430;-73
2022/01/13 00:19:54;;;;;;;8.35;5.22;;;;;;;-0.98;100.00;100798.09;4077859;28;20125;-73
2022/01/13 00:22:02;;;;;;;10.20;5.60;;;;;;;-0.99;100.00;100806.50;4073791;28;20055;-72
2022/01/13 00:24:04;;;;;;;13.38;5.80;;;;;;;-1.03;100.00;100802.59;4076799;28;20408;-72
2022/01/13 00:26:09;;;;;;;7.88;4.80;;;;;;;-1.02;100.00;100809.69;4074627;28;20035;-72
2022/01/13 00:28:20;;;;;;;13.77;5.68;;;;;;;-1.04;100.00;100800.97;4073053;28;20036;-72
2022/01/13 00:30:21;;;;;;;13.82;6.35;;;;;;;-1.05;100.00;100802.84;4073152;28;20048;-72
2022/01/13 00:32:23;;;;;;;9.73;5.22;;;;;;;-1.02;100.00;100806.97;4074259;28;20488;-73
2022/01/13 00:34:24;;;;;;;9.60;5.10;;;;;;;-1.01;100.00;100814.88;4074117;28;20071;-72
2022/01/13 00:36:25;;;;;;;9.15;5.10;;;;;;;-1.00;100.00;100818.41;4075695;28;20079;-72
2022/01/13 00:38:32;;;;;;;9.77;4.97;;;;;;;-1.01;100.00;100819.50;4074595;28;20052;-72
2022/01/13 00:40:32;;;;;;;7.70;5.10;;;;;;;-0.99;100.00;100820.91;4077617;28;20538;-73
2022/01/13 00:42:33;;;;;;;10.75;5.45;;;;;;;-0.96;100.00;100823.13;4074190;28;20143;-73
2022/01/13 00:44:37;;;;;;;10.00;5.32;;;;;;;-0.90;100.00;100814.00;4072465;28;20048;-73
2022/01/13 00:46:43;;;;;;;9.40;5.28;;;;;;;-0.88;100.00;100811.84;4074976;28;20455;-73
2022/01/13 00:48:43;;;;;;;13.40;5.53;;;;;;;-0.90;100.00;100807.75;4077505;28;20419;-72
2022/01/13 00:50:44;;;;;;;9.90;4.78;;;;;;;-0.87;100.00;100815.41;4078436;28;20047;-72
2022/01/13 00:52:44;;;;;;;7.55;4.50;;;;;;;-0.84;100.00;100809.47;4078569;28;20130;-72
2022/01/13 00:54:45;;;;;;;10.63;4.93;;;;;;;-0.87;100.00;100799.09;4073750;28;20296;-73
2022/01/13 00:56:46;;;;;;;10.85;5.82;;;;;;;-0.94;100.00;100798.41;4072870;28;20131;-73
2022/01/13 00:58:46;;;;;;;8.68;5.07;;;;;;;-0.99;100.00;100807.31;4073281;28;20048;-73
2022/01/13 01:00:46;;;;;;;10.02;4.95;;;;;;;-1.08;100.00;100802.50;4073875;28;20097;-73
2022/01/13 01:02:46;;;;;;;11.65;5.55;;;;;;;-1.09;100.00;100806.31;4074082;28;20123;-73
2022/01/13 01:04:47;;;;;;;8.30;5.07;;;;;;;-1.20;100.00;100806.13;4073845;28;20511;-73
2022/01/13 01:06:47;;;;;;;10.27;5.28;;;;;;;-1.26;100.00;100804.38;4074524;28;20058;-72
2022/01/13 01:08:48;;;;;;;8.38;5.00;;;;;;;-1.26;100.00;100795.41;4073551;28;20054;-72
2022/01/13 01:10:51;;;;;;;7.13;4.75;;;;;;;-1.28;100.00;100792.94;4078126;28;20448;-72
2022/01/13 01:12:51;;;;;;;12.93;5.22;;;;;;;-1.31;100.00;100789.91;4073039;28;20043;-73
2022/01/13 01:14:56;;;;;;;7.22;5.13;;;;;;;-1.27;100.00;100781.00;4074311;28;20139;-73
2022/01/13 01:16:57;;;;;;;8.15;4.60;;;;;;;-1.26;100.00;100779.09;4077487;28;20446;-73
2022/01/13 01:19:04;;;;;;;10.60;5.43;;;;;;;-1.24;100.00;100776.97;4075255;28;20457;-72
2022/01/13 01:23:16;;;;;;;9.77;4.88;;;;;;;-1.40;100.00;100765.03;4074304;28;20052;-73
2022/01/13 01:25:37;;;;;;;10.95;5.70;;;;;;;-1.40;100.00;100773.16;4072925;28;20404;-73
2022/01/13 01:27:45;;;;;;;7.60;4.85;;;;;;;-1.43;100.00;100770.91;4077821;28;20535;-73
2022/01/13 01:29:54;;;;;;;9.15;4.57;;;;;;;-1.45;100.00;100787.47;4073861;28;20415;-73
2022/01/13 01:31:56;;;;;;;9.80;4.53;;;;;;;-1.36;100.00;100781.63;4082082;28;20052;-73
2022/01/13 01:36:13;;;;;;;7.57;4.13;;;;;;;-1.31;100.00;100774.41;4080088;28;20138;-72
2022/01/13 01:38:14;;;;;;;7.30;4.38;;;;;;;-1.28;100.00;100767.66;4073856;28;20046;-72
2022/01/13 01:40:14;;;;;;;7.03;4.00;;;;;;;-1.30;100.00;100765.19;4077427;28;20192;-72
2022/01/13 01:42:18;;;;;;;10.73;5.00;;;;;;;-1.26;100.00;100765.53;4073739;28;20036;-72
2022/01/13 01:44:26;;;;;;;8.73;4.57;;;;;;;-1.25;100.00;100780.75;4077534;28;20039;-72
2022/01/13 01:46:27;;;;;;;11.02;5.20;;;;;;;-1.32;100.00;100764.63;4074016;28;20138;-72
2022/01/13 01:48:29;;;;;;;11.30;5.63;;;;;;;-1.35;100.00;100775.13;4071452;28;20075;-72
2022/01/13 01:50:35;;;;;;;12.50;6.10;;;;;;;-1.31;100.00;100766.28;4093010;28;20333;-72
2022/01/13 01:52:36;;;;;;;17.98;6.88;;;;;;;-1.31;100.00;100768.16;4081939;28;20044;-72
2022/01/13 01:54:37;;;;;;;18.42;7.75;;;;;;;-1.33;100.00;100759.41;4079301;28;20052;-72
2022/01/13 01:56:38;;;;;;;17.48;7.53;;;;;;;-1.37;100.00;100760.97;4070887;28;20894;-72
2022/01/13 01:58:38;;;;;;;14.32;6.93;;;;;;;-1.43;100.00;100755.44;4076412;28;20138;-73
2022/01/13 02:00:39;;;;;;;11.88;5.28;;;;;;;-1.39;100.00;100760.41;4073279;28;20078;-72
2022/01/13 02:02:41;;;;;;;12.27;5.90;;;;;;;-1.38;100.00;100749.31;4075768;28;20490;-72
2022/01/13 02:04:45;;;;;;;11.40;6.00;;;;;;;-1.42;100.00;100742.69;4074222;28;20656;-72
2022/01/13 02:06:45;;;;;;;19.52;6.32;;;;;;;-1.43;100.00;100744.59;4072274;28;20051;-72
2022/01/13 02:08:45;;;;;;;19.23;7.63;;;;;;;-1.39;100.00;100753.09;4073292;28;20043;-72
2022/01/13 02:10:46;;;;;;;17.73;7.47;;;;;;;-1.38;100.00;100756.63;4079700;28;20700;-73
2022/01/13 02:12:51;;;;;;;17.27;6.68;;;;;;;-1.40;100.00;100748.72;4073126;28;20134;-73
2022/01/13 02:17:24;;;;;;;16.80;6.85;;;;;;;-1.44;100.00;100747.56;4102878;28;20049;-72
2022/01/13 02:19:25;;;;;;;13.35;5.72;;;;;;;-1.49;100.00;100750.16;4078066;28;20055;-72
2022/01/13 02:21:26;;;;;;;12.10;5.55;;;;;;;-1.57;100.00;100742.41;4076901;28;20476;-73
2022/01/13 02:23:30;;;;;;;16.35;6.70;;;;;;;-1.59;100.00;100744.53;4072922;28;20050;-73
2022/01/13 02:25:30;;;;;;;12.38;5.88;;;;;;;-1.61;100.00;100746.69;4072774;28;20498;-73
2022/01/13 02:27:31;;;;;;;29.38;10.40;;;;;;;-1.67;100.00;100761.22;4072593;28;20056;-73
2022/01/13 02:29:32;;;;;;;35.47;10.50;;;;;;;-1.73;100.00;100747.56;4083647;28;20178;-73
2022/01/13 02:31:32;;;;;;;26.05;9.63;;;;;;;-1.77;100.00;100749.09;4085066;28;20051;-73
2022/01/13 02:33:35;;;;;;;23.65;7.95;;;;;;;-1.70;100.00;100752.50;4078375;28;20044;-72
2022/01/13 02:35:35;;;;;;;17.15;7.13;;;;;;;-1.67;100.00;100756.63;4079779;28;20059;-73
2022/01/13 02:37:36;;;;;;;18.40;6.40;;;;;;;-1.65;100.00;100751.78;4073670;28;20879;-72
2022/01/13 02:39:37;;;;;;;16.30;6.25;;;;;;;-1.61;100.00;100747.50;4073306;28;20051;-72
2022/01/13 02:41:37;;;;;;;15.90;6.20;;;;;;;-1.54;100.00;100747.38;4072817;28;20049;-72
2022/01/13 02:43:37;;;;;;;13.80;5.80;;;;;;;-1.51;100.00;100742.25;4072662;28;20048;-73
2022/01/13 02:45:51;;;;;;;12.00;4.55;;;;;;;-1.48;100.00;100738.25;4071619;28;20056;-73
2022/01/13 02:50:21;;;;;;;10.32;4.47;;;;;;;-1.45;100.00;100743.19;4133417;28;20087;-73
2022/01/13 02:52:21;;;;;;;12.18;5.75;;;;;;;-1.49;100.00;100740.16;4076591;28;20522;-72
2022/01/13 02:54:22;;;;;;;11.02;5.97;;;;;;;-1.51;100.00;100744.97;4072486;28;20055;-72
2022/01/13 02:56:22;;;;;;;12.93;5.97;;;;;;;-1.49;100.00;100742.88;4076533;28;20090;-72
2022/01/13 02:58:23;;;;;;;9.55;5.72;;;;;;;-1.51;100.00;100741.44;4071811;28;20048;-72
2022/01/13 03:00:24;;;;;;;11.10;5.80;;;;;;;-1.55;100.00;100738.41;4072761;28;20223;-72
2022/01/13 03:02:30;;;;;;;11.32;5.63;;;;;;;-1.54;100.00;100731.09;4071913;28;20140;-72
2022/01/13 03:04:30;;;;;;;12.48;5.72;;;;;;;-1.57;100.00;100737.84;4076053;28;20078;-72
2022/01/13 03:06:34;;;;;;;12.38;6.60;;;;;;;-1.62;100.00;100721.44;4084435;28;20212;-72
2022/01/13 03:08:42;;;;;;;12.63;6.53;;;;;;;-1.61;100.00;100720.38;4086313;28;20964;-72
2022/01/13 03:10:42;;;;;;;18.30;7.32;;;;;;;-1.62;100.00;100723.31;4081997;28;20043;-72
2022/01/13 03:12:45;;;;;;;19.48;6.85;;;;;;;-1.63;100.00;100717.06;4072433;28;20079;-72
2022/01/13 03:14:45;;;;;;;19.58;8.45;;;;;;;-1.65;100.00;100724.66;4071353;28;20054;-72
2022/01/13 03:16:46;;;;;;;23.75;9.65;;;;;;;-1.66;100.00;100712.13;4072835;28;20504;-72
2022/01/13 03:18:47;;;;;;;14.25;7.25;;;;;;;-1.62;100.00;100721.44;4075497;28;20047;-72
2022/01/13 03:20:47;;;;;;;20.10;8.63;;;;;;;-1.60;100.00;100726.63;4073835;28;20494;-72
2022/01/13 03:22:47;;;;;;;14.07;7.30;;;;;;;-1.56;100.00;100727.78;4075483;28;20080;-72
2022/01/13 03:24:48;;;;;;;17.85;8.07;;;;;;;-1.52;100.00;100734.38;4075006;28;20417;-72
2022/01/13 03:26:49;;;;;;;13.95;6.20;;;;;;;-1.53;100.00;100730.84;4075615;28;20189;-72
2022/01/13 03:28:51;;;;;;;13.80;6.82;;;;;;;-1.56;100.00;100730.50;4079762;28;20043;-72
2022/01/13 03:30:52;;;;;;;12.35;5.88;;;;;;;-1.59;100.00;100717.41;4074554;28;20138;-72
2022/01/13 03:32:52;;;;;;;17.27;6.97;;;;;;;-1.58;100.00;100719.03;4074739;28;20134;-72
2022/01/13 03:34:52;;;;;;;16.30;7.00;;;;;;;-1.60;100.00;100722.00;4074642;28;20093;-72
2022/01/13 03:36:53;;;;;;;14.32;7.13;;;;;;;-1.59;100.00;100725.53;4074633;28;20479;-72
2022/01/13 03:38:54;;;;;;;13.95;7.60;;;;;;;-1.59;100.00;100720.94;4074388;28;20044;-72
2022/01/13 03:40:54;;;;;;;16.60;7.93;;;;;;;-1.60;100.00;100713.03;4077746;28;20135;-72
2022/01/13 03:42:55;;;;;;;12.60;7.78;;;;;;;-1.55;100.00;100719.41;4074146;28;20047;-72
2022/01/13 03:44:55;;;;;;;13.45;7.50;;;;;;;-1.52;100.00;100718.91;4074889;28;20052;-72
2022/01/13 03:47:01;;;;;;;12.00;6.95;;;;;;;-1.51;100.00;100720.53;4074667;28;20092;-72
2022/01/13 03:49:03;;;;;;;15.27;7.57;;;;;;;-1.47;100.00;100726.31;4076026;28;20126;-72
2022/01/13 03:51:04;;;;;;;12.43;7.20;;;;;;;-1.44;100.00;100733.97;4075332;28;20043;-72
2022/01/13 03:53:28;;;;;;;11.02;6.20;;;;;;;-1.40;100.00;100731.63;4073618;28;20110;-72
2022/01/13 03:55:40;;;;;;;15.27;7.53;;;;;;;-1.37;100.00;100726.50;4073778;28;20392;-72
2022/01/13 03:58:00;;;;;;;14.73;7.32;;;;;;;-1.32;100.00;100728.50;4074386;28;20070;-72
2022/01/13 04:00:42;;;;;;;13.30;7.20;;;;;;;-1.27;100.00;100717.69;4075671;28;20052;-72
2022/01/13 04:02:42;;;;;;;15.68;7.57;;;;;;;-1.26;100.00;100716.63;4075198;28;20578;-72
2022/01/13 04:04:48;;;;;;;13.38;7.10;;;;;;;-1.24;100.00;100714.47;4073816;28;20084;-72
2022/01/13 04:06:49;;;;;;;16.55;7.15;;;;;;;-1.20;100.00;100716.47;4074543;28;20059;-72
2022/01/13 04:08:52;;;;;;;15.50;7.32;;;;;;;-1.20;100.00;100700.19;4078093;28;20631;-72
2022/01/13 04:11:05;;;;;;;13.40;7.88;;;;;;;-1.16;100.00;100700.50;4080957;28;20488;-72
2022/01/13 04:13:11;;;;;;;13.63;6.75;;;;;;;-1.14;100.00;100701.91;4076307;28;20485;-72
2022/01/13 04:15:14;;;;;;;11.82;6.50;;;;;;;-1.14;100.00;100695.66;4079000;28;20516;-72
2022/01/13 04:17:19;;;;;;;14.00;6.10;;;;;;;-1.06;100.00;100697.16;4076407;28;20105;-72
2022/01/13 04:19:20;;;;;;;11.50;6.35;;;;;;;-1.06;100.00;100695.25;4082455;28;20420;-72
2022/01/13 04:21:21;;;;;;;12.15;6.72;;;;;;;-1.02;100.00;100687.41;4073292;28;20499;-72
2022/01/13 04:23:22;;;;;;;15.98;7.78;;;;;;;-0.99;100.00;100687.75;4087425;28;20043;-72
2022/01/13 04:25:23;;;;;;;14.57;7.13;;;;;;;-0.95;100.00;100699.75;4084580;28;20136;-72
2022/01/13 04:27:31;;;;;;;11.50;6.38;;;;;;;-0.91;100.00;100700.94;4075780;28;20051;-72
2022/01/13 04:29:44;;;;;;;11.57;5.28;;;;;;;-0.87;100.00;100702.06;4077560;28;20051;-72
2022/01/13 04:31:47;;;;;;;15.23;6.20;;;;;;;-0.76;100.00;100697.59;4081532;28;20043;-72
2022/01/13 04:33:47;;;;;;;;;;;;;;;-0.73;100.00;100697.13;4079233;28;20048;-72
2022/01/13 04:35:47;;;;;;;9.00;4.97;;;;;;;-0.69;100.00;100698.25;4078753;28;20178;-72
2022/01/13 04:37:48;;;;;;;8.88;6.00;;;;;;;-0.69;100.00;100694.72;4072713;28;20067;-72
2022/01/13 04:39:48;;;;;;;14.40;5.90;;;;;;;-0.66;100.00;100707.81;4074561;28;20072;-72
2022/01/13 04:41:49;;;;;;;12.55;6.47;;;;;;;-0.66;100.00;100699.66;4080466;28;20508;-72
2022/01/13 04:43:49;;;;;;;10.57;5.82;;;;;;;-0.65;100.00;100704.03;4085474;28;20143;-72
2022/01/13 04:45:50;;;;;;;15.15;6.57;;;;;;;-0.63;100.00;100705.41;4086421;28;20055;-72
2022/01/13 04:47:53;;;;;;;13.05;7.30;;;;;;;-0.67;100.00;100706.97;4077038;28;20044;-72
2022/01/13 04:49:53;;;;;;;12.20;6.57;;;;;;;-0.67;100.00;100708.88;4074887;28;20048;-72
2022/01/13 04:51:54;;;;;;;9.07;5.55;;;;;;;-0.70;100.00;100715.63;4076009;28;20051;-72
2022/01/13 04:53:55;;;;;;;10.63;5.95;;;;;;;-0.71;100.00;100716.72;4083594;28;20075;-72
2022/01/13 04:55:58;;;;;;;10.23;6.10;;;;;;;-0.69;100.00;100722.72;4081656;28;20746;-72
2022/01/13 04:58:01;;;;;;;10.25;6.05;;;;;;;-0.70;100.00;100721.06;4073074;28;20043;-72
2022/01/13 05:00:04;;;;;;;10.68;6.03;;;;;;;-0.70;100.00;100723.78;4074424;28;20126;-72
2022/01/13 05:02:05;;;;;;;11.45;6.68;;;;;;;-0.69;100.00;100730.06;4075902;28;20044;-72
2022/01/13 05:04:06;;;;;;;13.55;6.72;;;;;;;-0.68;100.00;100728.97;4074914;28;20354;-72
2022/01/13 05:06:06;;;;;;;14.15;7.72;;;;;;;-0.69;100.00;100733.59;4082301;28;20035;-72
2022/01/13 05:08:07;;;;;;;13.55;6.30;;;;;;;-0.69;100.00;100733.59;4079721;28;20031;-72
2022/01/13 05:10:08;;;;;;;12.30;6.75;;;;;;;-0.68;100.00;100723.53;4076176;28;20038;-72
2022/01/13 05:12:08;;;;;;;10.85;6.63;;;;;;;-0.65;100.00;100739.38;4076647;28;20027;-72
2022/01/13 05:14:09;;;;;;;14.20;7.43;;;;;;;-0.66;100.00;100741.28;4074833;28;20465;-72
2022/01/13 05:16:19;;;;;;;11.25;6.22;;;;;;;-0.68;100.00;100740.66;4076672;28;20031;-72
2022/01/13 05:18:43;;;;;;;11.43;7.00;;;;;;;-0.67;100.00;100741.50;4075010;28;20050;-72
2022/01/13 05:20:50;;;;;;;14.05;7.28;;;;;;;-0.71;100.00;100734.91;4074892;28;20073;-72
2022/01/13 05:22:50;;;;;;;12.38;6.97;;;;;;;-0.74;100.00;100727.28;4073860;28;20298;-72
2022/01/13 05:24:51;;;;;;;14.07;7.20;;;;;;;-0.77;100.00;100725.03;4075354;28;20071;-72
2022/01/13 05:26:52;;;;;;;16.73;7.65;;;;;;;-0.82;100.00;100728.50;4073880;28;20047;-72
2022/01/13 05:28:52;;;;;;;15.68;6.78;;;;;;;-0.87;100.00;100725.72;4076878;28;20039;-72
2022/01/13 05:30:53;;;;;;;12.75;6.75;;;;;;;-0.82;100.00;100728.50;4075724;28;20044;-72
2022/01/13 05:32:56;;;;;;;14.40;6.90;;;;;;;-0.79;100.00;100732.63;4074458;28;20066;-72
2022/01/13 05:34:56;;;;;;;16.98;8.60;;;;;;;-0.77;100.00;100735.91;4075522;28;20054;-72
2022/01/13 05:36:57;;;;;;;13.35;6.68;;;;;;;-0.77;100.00;100725.03;4074584;28;20047;-72
2022/01/13 05:38:57;;;;;;;12.77;6.20;;;;;;;-0.81;100.00;100713.84;4075347;28;20073;-72
2022/01/13 05:41:00;;;;;;;11.43;6.22;;;;;;;-0.83;100.00;100726.03;4075167;28;20059;-72
2022/01/13 05:43:02;;;;;;;9.02;5.18;;;;;;;-0.88;100.00;100721.34;4075465;28;20498;-72
2022/01/13 05:45:03;;;;;;;10.13;5.30;;;;;;;-0.83;100.00;100717.88;4072617;28;20044;-72
2022/01/13 05:47:04;;;;;;;7.47;4.78;;;;;;;-0.87;100.00;100721.09;4075477;28;20079;-72
2022/01/13 05:49:04;;;;;;;6.72;4.60;;;;;;;-0.94;100.00;100716.88;4074608;28;20451;-72
2022/01/13 05:51:04;;;;;;;8.88;4.63;;;;;;;-1.01;100.00;100714.34;4073796;28;20155;-72
2022/01/13 05:53:05;;;;;;;6.53;4.25;;;;;;;-1.11;100.00;100716.06;4076187;28;20039;-72
2022/01/13 05:55:07;;;;;;;7.15;4.20;;;;;;;-1.17;100.00;100707.00;4077597;28;20131;-72
2022/01/13 05:57:08;;;;;;;9.57;5.30;;;;;;;-1.24;100.00;100699.03;4077792;28;20300;-72
2022/01/13 05:59:09;;;;;;;11.35;5.93;;;;;;;-1.22;100.00;100705.03;4156243;28;20037;-72
2022/01/13 06:01:09;;;;;;;10.15;5.43;;;;;;;-1.26;100.00;100705.75;4075578;28;20047;-72
2022/01/13 06:03:10;;;;;;;9.25;5.47;;;;;;;-1.27;100.00;100701.41;4073944;28;20973;-72
2022/01/13 06:05:11;;;;;;;7.63;4.72;;;;;;;-1.29;100.00;100717.13;4075693;28;20062;-73
2022/01/13 06:07:11;;;;;;;11.15;6.55;;;;;;;-1.37;100.00;100701.25;4074082;28;20050;-72
2022/01/13 06:09:11;;;;;;;9.10;5.38;;;;;;;-1.46;100.00;100696.22;4075223;28;20054;-72
2022/01/13 06:11:12;;;;;;;9.07;6.13;;;;;;;-1.50;100.00;100694.22;4076476;28;20131;-72
2022/01/13 06:13:13;;;;;;;7.97;5.70;;;;;;;-1.45;100.00;100694.31;4073169;28;21068;-72
2022/01/13 06:15:18;;;;;;;7.18;4.65;;;;;;;-1.47;100.00;100688.31;4100935;28;20121;-72
2022/01/13 06:17:18;;;;;;;9.85;5.45;;;;;;;-1.53;100.00;100690.09;4090192;28;20076;-72
2022/01/13 06:19:19;;;;;;;10.32;5.03;;;;;;;-1.50;100.00;100696.94;4155790;28;20175;-72
2022/01/13 06:21:19;;;;;;;9.43;5.32;;;;;;;-1.60;100.00;100704.91;4072876;28;20223;-72
2022/01/13 06:23:19;;;;;;;9.18;5.35;;;;;;;-1.66;100.00;100695.00;4076023;28;20188;-72
2022/01/13 06:25:21;;;;;;;6.80;4.85;;;;;;;-1.66;100.00;100697.72;4073060;28;20562;-72
2022/01/13 06:27:22;;;;;;;6.78;4.03;;;;;;;-1.68;100.00;100699.88;4071336;28;20059;-72
2022/01/13 06:29:23;;;;;;;7.72;4.30;;;;;;;-1.75;100.00;100700.00;4082714;28;20053;-72
2022/01/13 06:31:23;;;;;;;9.32;4.45;;;;;;;-1.78;100.00;100695.06;4083298;28;20162;-72
2022/01/13 06:33:23;;;;;;;6.63;4.10;;;;;;;-1.83;100.00;100697.69;4090034;28;20167;-72
2022/01/13 06:35:24;;;;;;;6.88;3.83;;;;;;;-1.85;100.00;100687.06;4079295;28;20096;-72
2022/01/13 06:37:24;;;;;;;8.50;4.28;;;;;;;-1.90;100.00;100684.28;4070735;28;20059;-72
2022/01/13 06:39:25;;;;;;;7.32;4.90;;;;;;;-1.91;100.00;100693.47;4072290;28;20495;-72
2022/01/13 06:41:25;;;;;;;9.52;5.22;;;;;;;-1.90;100.00;100697.84;4073429;28;20047;-72
2022/01/13 06:43:25;;;;;;;7.40;4.53;;;;;;;-1.93;100.00;100698.31;4073502;28;20043;-72
2022/01/13 06:45:26;;;;;;;8.07;4.97;;;;;;;-1.93;100.00;100705.63;4071957;28;20095;-72
2022/01/13 06:47:26;;;;;;;10.15;5.65;;;;;;;-1.92;100.00;100702.66;4071945;28;20146;-72
2022/01/13 06:49:26;;;;;;;8.82;5.90;;;;;;;-1.90;100.00;100689.72;4073417;28;20052;-72
2022/01/13 06:51:27;;;;;;;7.88;5.95;;;;;;;-1.83;100.00;100697.69;4070352;28;20063;-72
2022/01/13 06:53:27;;;;;;;7.82;5.80;;;;;;;-1.89;100.00;100701.38;4073439;28;20439;-72
2022/01/13 06:55:27;;;;;;;9.05;5.57;;;;;;;-1.92;100.00;100709.97;4077113;28;20465;-72
2022/01/13 06:57:30;;;;;;;7.35;5.50;;;;;;;-1.94;100.00;100702.09;4070578;28;20047;-72
2022/01/13 06:59:30;;;;;;;11.30;5.88;;;;;;;-1.98;100.00;100698.22;4073153;28;20043;-72
2022/01/13 07:01:30;;;;;;;9.10;5.53;;;;;;;-1.96;100.00;100706.13;4072334;28;20374;-72
2022/01/13 07:03:31;;;;;;;9.73;5.85;;;;;;;-1.93;100.00;100711.06;4072131;28;20082;-72
2022/01/13 07:05:31;;;;;;;11.38;6.28;;;;;;;-1.92;100.00;100708.09;4072428;28;20052;-72
2022/01/13 07:07:34;;;;;;;12.93;5.97;;;;;;;-1.89;100.00;100717.66;4071928;28;20055;-72
2022/01/13 07:09:35;;;;;;;9.80;5.97;;;;;;;-1.88;100.00;100714.69;4078969;28;20048;-72
2022/01/13 07:11:36;;;;;;;10.55;6.47;;;;;;;-1.89;100.00;100714.94;4071371;28;20078;-72
2022/01/13 07:13:36;;;;;;;10.13;6.10;;;;;;;-1.90;100.00;100721.41;4072748;28;20514;-72
2022/01/13 07:15:36;;;;;;;10.23;6.05;;;;;;;-1.91;100.00;100727.91;4071973;28;20079;-72
2022/01/13 07:17:37;;;;;;;11.02;5.70;;;;;;;-1.91;100.00;100725.19;4071134;28;20040;-72
2022/01/13 07:19:38;;;;;;;10.93;6.10;;;;;;;-1.88;100.00;100730.97;4071850;28;20052;-72
2022/01/13 07:21:43;;;;;;;9.77;6.22;;;;;;;-1.88;100.00;100720.13;4071985;28;20055;-72
2022/01/13 07:23:44;;;;;;;15.57;7.50;;;;;;;-1.89;100.00;100721.19;4071506;28;20044;-72
2022/01/13 07:25:44;;;;;;;13.70;6.45;;;;;;;-1.92;100.00;100727.09;4072454;28;20048;-72
2022/01/13 07:27:44;;;;;;;13.85;7.03;;;;;;;-1.93;100.00;100730.88;4072768;28;20052;-72
2022/01/13 07:29:45;;;;;;;11.65;5.95;;;;;;;-1.95;100.00;100733.00;4075247;28;20343;-72
2022/01/13 07:31:47;;;;;;;14.85;6.55;;;;;;;-2.02;100.00;100727.72;4158881;28;20092;-72
2022/01/13 07:33:47;;;;;;;12.55;7.07;;;;;;;-2.06;100.00;100731.97;4076014;28;20048;-72
2022/01/13 07:35:48;;;;;;;11.60;7.00;;;;;;;-2.08;100.00;100730.56;4072538;28;20681;-72
2022/01/13 07:37:49;;;;;;;13.95;6.93;;;;;;;-2.11;100.00;100726.44;4070681;28;20063;-72
2022/01/13 07:39:49;;;;;;;12.70;6.80;;;;;;;-2.14;100.00;100726.13;4071921;28;20086;-72
2022/01/13 07:41:49;;;;;;;10.23;6.13;;;;;;;-2.17;100.00;100723.84;4072477;28;20051;-72
2022/01/13 07:43:54;;;;;;;12.00;6.28;;;;;;;-2.14;100.00;100715.25;4076141;28;20434;-72
2022/01/13 07:45:56;;;;;;;15.65;6.75;;;;;;;-2.11;100.00;100726.44;4071500;28;20069;-72
2022/01/13 07:47:57;;;;;;;11.52;6.40;;;;;;;-2.11;100.00;100731.88;4072123;28;20083;-72
2022/01/13 07:49:57;;;;;;;13.65;6.25;;;;;;;-2.14;100.00;100720.69;4072251;28;20128;-72
2022/01/13 07:51:57;;;;;;;11.75;6.15;;;;;;;-2.12;100.00;100724.78;4070696;28;20048;-72
2022/01/13 07:53:58;;;;;;;11.02;5.70;;;;;;;-2.15;100.00;100721.72;4072768;28;20082;-72
2022/01/13 07:55:58;;;;;;;11.02;5.82;;;;;;;-2.18;100.00;100728.47;4073889;28;20341;-72
2022/01/13 07:57:58;;;;;;;11.07;5.78;;;;;;;-2.20;100.00;100729.78;4073953;28;20557;-72
2022/01/13 07:59:59;;;;;;;10.82;5.07;;;;;;;-2.17;100.00;100732.81;4072068;28;20569;-72
2022/01/13 08:01:59;;;;;;;10.00;5.50;;;;;;;-2.08;100.00;100741.41;4071993;28;20051;-72
2022/01/13 08:04:00;;;;;;;12.63;5.63;;;;;;;-2.06;100.00;100733.88;4074337;28;20079;-72
2022/01/13 08:06:03;;;;;;;10.73;5.80;;;;;;;-2.01;100.00;100739.38;4074134;28;20086;-72
2022/01/13 08:08:04;;;;;;;11.25;6.10;;;;;;;-1.95;100.00;100741.16;4073616;28;20580;-72
2022/01/13 08:10:05;;;;;;;10.70;6.82;;;;;;;-1.93;100.00;100755.28;4075113;28;20106;-72
2022/01/13 08:12:06;;;;;;;15.55;8.30;;;;;;;-1.94;100.00;100745.50;4074614;28;20617;-72
2022/01/13 08:14:06;;;;;;;16.83;8.48;;;;;;;-1.90;100.00;100754.81;4074937;28;20387;-72
2022/01/13 08:16:09;;;;;;;16.10;7.93;;;;;;;-1.87;100.00;100750.81;4074169;28;20028;-72
2022/01/13 08:20:29;;;;;;;18.55;8.27;;;;;;;-1.78;100.00;100774.59;4077054;28;20055;-72
2022/01/13 08:22:29;;;;;;;16.73;8.70;;;;;;;-1.71;100.00;100779.91;4074497;28;20050;-72
2022/01/13 08:24:30;;;;;;;16.33;9.13;;;;;;;-1.67;100.00;100777.50;4073913;28;20055;-72
2022/01/13 08:26:32;;;;;;;13.07;8.43;;;;;;;-1.60;100.00;100780.91;4074388;28;20336;-72
2022/01/13 08:28:32;;;;;;;17.52;7.13;;;;;;;-1.38;100.00;100794.66;4073088;28;20154;-72
2022/01/13 08:30:33;;;;;;;12.38;5.85;;;;;;;-1.28;100.00;100800.25;4074163;28;20495;-72
2022/01/13 08:32:33;;;;;;;10.43;6.70;;;;;;;-1.01;100.00;100801.28;4074083;28;20215;-72
2022/01/13 08:34:34;;;;;;;13.45;8.20;;;;;;;-0.86;100.00;100806.16;4073469;28;20591;-72
2022/01/13 08:36:34;;;;;;;14.50;7.28;;;;;;;-0.66;100.00;100809.25;4078587;28;20101;-72
2022/01/13 08:38:35;;;;;;;12.18;7.03;;;;;;;-0.57;100.00;100806.94;4073167;28;20051;-72
2022/01/13 08:40:35;;;;;;;9.65;6.35;;;;;;;-0.51;100.00;100813.25;4073875;28;20044;-72
2022/01/13 08:42:36;;;;;;;9.95;6.18;;;;;;;-0.44;100.00;100811.19;4074719;28;20051;-72
2022/01/13 08:44:36;;;;;;;12.02;6.45;;;;;;;-0.41;100.00;100803.38;4075352;28;20828;-72
2022/01/13 08:46:37;;;;;;;12.10;5.80;;;;;;;-0.28;100.00;100810.34;4073199;28;20064;-72
2022/01/13 08:48:38;;;;;;;10.48;4.85;;;;;;;-0.17;99.91;100809.41;4074242;28;20051;-72
2022/01/13 08:50:39;;;;;;;19.88;7.60;;;;;;;-0.12;99.14;100811.41;4074121;28;20130;-72
2022/01/13 08:52:39;;;;;;;9.57;5.97;;;;;;;-0.03;97.73;100810.72;4072601;28;20074;-72
2022/01/13 08:54:45;;;;;;;12.07;6.38;;;;;;;0.05;97.50;100806.72;4076852;28;20051;-72
2022/01/13 08:56:45;;;;;;;9.32;5.38;;;;;;;0.10;96.83;100806.81;4077996;28;20044;-72
2022/01/13 08:58:46;;;;;;;10.27;6.30;;;;;;;0.09;96.43;100804.34;4073343;28;20052;-72
2022/01/13 09:00:48;;;;;;;13.13;6.43;;;;;;;0.18;96.08;100794.66;4077643;28;20106;-72
2022/01/13 09:02:49;;;;;;;13.18;6.68;;;;;;;0.17;96.36;100796.56;4074101;28;20079;-72
2022/01/13 09:04:50;;;;;;;11.02;6.13;;;;;;;0.17;97.35;100788.41;4074122;28;20566;-72
2022/01/13 09:06:50;;;;;;;12.18;5.95;;;;;;;0.24;97.88;100788.19;4073070;28;20052;-72
2022/01/13 09:08:51;;;;;;;12.75;6.63;;;;;;;0.22;98.01;100780.28;4073829;28;20056;-72
2022/01/13 09:10:51;;;;;;;10.60;6.50;;;;;;;0.26;98.02;100786.06;4077506;28;20048;-72
2022/01/13 09:12:51;;;;;;;16.90;7.57;;;;;;;0.30;98.07;100784.44;4073224;28;20098;-72
2022/01/13 09:14:58;;;;;;;22.38;10.20;;;;;;;0.44;97.24;100780.28;4072700;28;20058;-72
2022/01/13 09:17:00;;;;;;;60.33;16.48;;;;;;;0.47;96.99;100787.09;4075315;28;20062;-72
2022/01/13 09:19:08;;;;;;;33.00;12.25;;;;;;;0.55;96.03;100787.47;4074063;28;20065;-72
2022/01/13 09:21:08;;;;;;;23.73;9.95;;;;;;;0.60;95.61;100789.44;4080202;28;20272;-72
2022/01/13 09:23:09;;;;;;;14.45;7.97;;;;;;;0.69;95.22;100793.34;4073047;28;20117;-72
2022/01/13 09:25:11;;;;;;;14.55;7.85;;;;;;;0.72;95.34;100783.81;4073324;28;20275;-72
2022/01/13 09:27:11;;;;;;;13.80;7.70;;;;;;;0.77;94.96;100781.16;4072965;28;20052;-72
2022/01/13 09:29:13;;;;;;;9.52;5.88;;;;;;;0.76;95.12;100771.34;4073052;28;20331;-72
2022/01/13 09:31:13;;;;;;;12.70;6.15;;;;;;;0.79;95.02;100777.09;4073877;28;20047;-72